sensor_id;sensor_type;location;lat;lon;timestamp;pressure;altitude;pressure_sealevel;temperature;humidity
19096;BME280;9680;52.520;13.332;2023-02-01T00:00:31;100816.31;;;4.19;89.55
19096;BME280;9680;52.520;13.332;2023-02-01T00:03:00;100812.84;;;4.22;88.66
19096;BME280;9680;52.520;13.332;2023-02-01T00:05:27;100812.88;;;4.20;88.62
19096;BME280;9680;52.520;13.332;2023-02-01T00:07:54;100821.44;;;4.21;89.02
19096;BME280;9680;52.520;13.332;2023-02-01T00:10:21;100818.06;;;4.17;88.96
19096;BME280;9680;52.520;13.332;2023-02-01T00:12:48;100808.63;;;4.16;88.64
19096;BME280;9680;52.520;13.332;2023-02-01T00:15:16;100823.22;;;4.16;87.77
19096;BME280;9680;52.520;13.332;2023-02-01T00:17:44;100823.28;;;4.11;86.88
19096;BME280;9680;52.520;13.332;2023-02-01T00:20:11;100813.09;;;3.99;86.60
19096;BME280;9680;52.520;13.332;2023-02-01T00:22:38;100808.75;;;4.04;85.48
19096;BME280;9680;52.520;13.332;2023-02-01T00:25:05;100815.66;;;4.02;85.06
19096;BME280;9680;52.520;13.332;2023-02-01T00:27:34;100785.56;;;4.02;84.93
19096;BME280;9680;52.520;13.332;2023-02-01T00:30:01;100799.25;;;4.07;83.70
19096;BME280;9680;52.520;13.332;2023-02-01T00:32:29;100809.59;;;4.04;83.47
19096;BME280;9680;52.520;13.332;2023-02-01T00:34:57;100818.19;;;4.03;83.14
19096;BME280;9680;52.520;13.332;2023-02-01T00:37:24;100807.06;;;3.98;83.48
19096;BME280;9680;52.520;13.332;2023-02-01T00:39:51;100807.06;;;3.97;83.25
19096;BME280;9680;52.520;13.332;2023-02-01T00:42:20;100809.66;;;3.98;83.04
19096;BME280;9680;52.520;13.332;2023-02-01T00:44:47;100809.69;;;3.93;83.28
19096;BME280;9680;52.520;13.332;2023-02-01T00:47:14;100820.06;;;3.84;83.60
19096;BME280;9680;52.520;13.332;2023-02-01T00:49:42;100826.97;;;3.84;84.10
19096;BME280;9680;52.520;13.332;2023-02-01T00:52:10;100821.84;;;3.81;84.77
19096;BME280;9680;52.520;13.332;2023-02-01T00:54:37;100821.72;;;3.91;85.71
19096;BME280;9680;52.520;13.332;2023-02-01T00:57:04;100830.31;;;3.95;84.98
19096;BME280;9680;52.520;13.332;2023-02-01T00:59:31;100835.50;;;3.90;84.67
19096;BME280;9680;52.520;13.332;2023-02-01T01:01:58;100837.25;;;3.85;84.63
19096;BME280;9680;52.520;13.332;2023-02-01T01:04:25;100834.75;;;3.77;84.93
19096;BME280;9680;52.520;13.332;2023-02-01T01:06:53;100839.09;;;3.72;85.39
19096;BME280;9680;52.520;13.332;2023-02-01T01:09:20;100829.66;;;3.70;86.06
19096;BME280;9680;52.520;13.332;2023-02-01T01:11:47;100809.94;;;3.67;86.17
19096;BME280;9680;52.520;13.332;2023-02-01T01:14:16;100823.69;;;3.64;86.33
19096;BME280;9680;52.520;13.332;2023-02-01T01:16:46;100817.66;;;3.64;86.38
19096;BME280;9680;52.520;13.332;2023-02-01T01:19:15;100815.94;;;3.63;86.45
19096;BME280;9680;52.520;13.332;2023-02-01T01:21:43;100812.50;;;3.64;86.36
19096;BME280;9680;52.520;13.332;2023-02-01T01:24:11;100813.38;;;3.64;86.50
19096;BME280;9680;52.520;13.332;2023-02-01T01:26:38;100798.78;;;3.65;86.56
19096;BME280;9680;52.520;13.332;2023-02-01T01:29:05;100806.53;;;3.65;86.49
19096;BME280;9680;52.520;13.332;2023-02-01T01:31:32;100803.94;;;3.65;86.17
19096;BME280;9680;52.520;13.332;2023-02-01T01:33:59;100797.06;;;3.66;86.19
19096;BME280;9680;52.520;13.332;2023-02-01T01:36:29;100790.19;;;3.64;86.22
19096;BME280;9680;52.520;13.332;2023-02-01T01:38:56;100792.75;;;3.64;85.84
19096;BME280;9680;52.520;13.332;2023-02-01T01:41:28;100791.06;;;3.65;85.68
19096;BME280;9680;52.520;13.332;2023-02-01T01:44:01;100782.47;;;3.66;85.58
19096;BME280;9680;52.520;13.332;2023-02-01T01:46:32;100777.28;;;3.68;85.72
19096;BME280;9680;52.520;13.332;2023-02-01T01:49:05;100794.44;;;3.70;85.65
19096;BME280;9680;52.520;13.332;2023-02-01T01:51:37;100769.53;;;3.71;85.51
19096;BME280;9680;52.520;13.332;2023-02-01T01:54:10;100778.94;;;3.75;85.40
19096;BME280;9680;52.520;13.332;2023-02-01T01:56:45;100781.50;;;3.75;84.86
19096;BME280;9680;52.520;13.332;2023-02-01T01:59:14;100777.16;;;3.80;84.58
19096;BME280;9680;52.520;13.332;2023-02-01T02:01:41;100778.84;;;3.84;84.11
19096;BME280;9680;52.520;13.332;2023-02-01T02:04:08;100780.59;;;3.84;83.99
19096;BME280;9680;52.520;13.332;2023-02-01T02:06:41;100777.13;;;3.85;83.40
19096;BME280;9680;52.520;13.332;2023-02-01T02:09:13;100784.00;;;3.86;83.21
19096;BME280;9680;52.520;13.332;2023-02-01T02:11:40;100796.00;;;3.87;83.24
19096;BME280;9680;52.520;13.332;2023-02-01T02:14:11;100806.31;;;3.87;83.43
19096;BME280;9680;52.520;13.332;2023-02-01T02:16:48;100803.72;;;3.88;82.87
19096;BME280;9680;52.520;13.332;2023-02-01T02:25:59;100795.94;;;3.94;82.10
19096;BME280;9680;52.520;13.332;2023-02-01T02:31:45;100789.94;;;3.92;82.29
19096;BME280;9680;52.520;13.332;2023-02-01T02:34:18;100790.81;;;3.91;82.34
19096;BME280;9680;52.520;13.332;2023-02-01T02:36:59;100782.16;;;3.97;82.93
19096;BME280;9680;52.520;13.332;2023-02-01T02:39:38;100786.44;;;4.00;82.94
19096;BME280;9680;52.520;13.332;2023-02-01T02:42:13;100775.22;;;4.07;82.61
19096;BME280;9680;52.520;13.332;2023-02-01T02:45:02;100781.97;;;4.16;82.05
19096;BME280;9680;52.520;13.332;2023-02-01T02:47:53;100775.13;;;4.13;81.79
19096;BME280;9680;52.520;13.332;2023-02-01T02:50:26;100783.78;;;4.07;82.07
19096;BME280;9680;52.520;13.332;2023-02-01T02:53:15;100773.50;;;4.06;81.98
19096;BME280;9680;52.520;13.332;2023-02-01T02:56:04;100769.19;;;4.08;82.06
19096;BME280;9680;52.520;13.332;2023-02-01T02:58:51;100774.31;;;4.10;82.08
19096;BME280;9680;52.520;13.332;2023-02-01T03:01:36;100775.09;;;4.15;81.95
19096;BME280;9680;52.520;13.332;2023-02-01T03:04:21;100775.03;;;4.21;81.72
19096;BME280;9680;52.520;13.332;2023-02-01T03:06:51;100764.75;;;4.19;81.40
19096;BME280;9680;52.520;13.332;2023-02-01T03:09:22;100770.78;;;4.18;81.50
19096;BME280;9680;52.520;13.332;2023-02-01T03:11:56;100770.78;;;4.18;81.23
19096;BME280;9680;52.520;13.332;2023-02-01T03:14:46;100758.66;;;4.25;81.08
19096;BME280;9680;52.520;13.332;2023-02-01T03:17:18;100750.88;;;4.28;80.47
19096;BME280;9680;52.520;13.332;2023-02-01T03:19:51;100742.34;;;4.23;80.78
19096;BME280;9680;52.520;13.332;2023-02-01T03:22:24;100738.97;;;4.19;80.94
19096;BME280;9680;52.520;13.332;2023-02-01T03:24:54;100738.97;;;4.18;81.01
19096;BME280;9680;52.520;13.332;2023-02-01T03:27:29;100726.13;;;4.16;81.20
19096;BME280;9680;52.520;13.332;2023-02-01T03:30:02;100724.41;;;4.15;81.27
19096;BME280;9680;52.520;13.332;2023-02-01T03:32:31;100725.25;;;4.16;81.46
19096;BME280;9680;52.520;13.332;2023-02-01T03:35:26;100722.69;;;4.14;81.52
19096;BME280;9680;52.520;13.332;2023-02-01T03:37:58;100715.84;;;4.12;81.63
19096;BME280;9680;52.520;13.332;2023-02-01T03:40:29;100715.88;;;4.08;81.71
19096;BME280;9680;52.520;13.332;2023-02-01T03:42:59;100716.75;;;4.07;81.71
19096;BME280;9680;52.520;13.332;2023-02-01T03:45:34;100701.31;;;4.06;81.98
19096;BME280;9680;52.520;13.332;2023-02-01T03:48:05;100697.00;;;4.08;81.91
19096;BME280;9680;52.520;13.332;2023-02-01T03:50:35;100714.97;;;4.13;82.13
19096;BME280;9680;52.520;13.332;2023-02-01T03:53:09;100719.22;;;4.18;82.24
19096;BME280;9680;52.520;13.332;2023-02-01T03:55:39;100713.16;;;4.22;82.01
19096;BME280;9680;52.520;13.332;2023-02-01T03:58:09;100706.19;;;4.26;81.84
19096;BME280;9680;52.520;13.332;2023-02-01T04:00:38;100706.16;;;4.32;81.80
19096;BME280;9680;52.520;13.332;2023-02-01T04:03:06;100712.91;;;4.41;81.32
19096;BME280;9680;52.520;13.332;2023-02-01T04:05:33;100711.16;;;4.45;80.77
19096;BME280;9680;52.520;13.332;2023-02-01T04:08:04;100704.16;;;4.51;80.30
19096;BME280;9680;52.520;13.332;2023-02-01T04:10:32;100714.41;;;4.58;80.47
19096;BME280;9680;52.520;13.332;2023-02-01T04:12:59;100710.13;;;4.58;80.37
19096;BME280;9680;52.520;13.332;2023-02-01T04:15:26;100704.03;;;4.62;80.29
19096;BME280;9680;52.520;13.332;2023-02-01T04:17:53;100703.06;;;4.70;80.32
19096;BME280;9680;52.520;13.332;2023-02-01T04:20:20;100708.97;;;4.78;80.02
19096;BME280;9680;52.520;13.332;2023-02-01T04:22:47;100700.31;;;4.82;79.66
19096;BME280;9680;52.520;13.332;2023-02-01T04:25:13;100717.44;;;4.88;79.58
19096;BME280;9680;52.520;13.332;2023-02-01T04:27:46;100703.63;;;4.90;79.03
19096;BME280;9680;52.520;13.332;2023-02-01T04:30:14;100714.78;;;4.92;78.22
19096;BME280;9680;52.520;13.332;2023-02-01T04:32:40;100701.09;;;4.89;78.27
19096;BME280;9680;52.520;13.332;2023-02-01T04:35:08;100702.75;;;4.91;78.29
19096;BME280;9680;52.520;13.332;2023-02-01T04:37:35;100696.66;;;4.95;78.31
19096;BME280;9680;52.520;13.332;2023-02-01T04:40:02;100688.09;;;4.95;78.38
19096;BME280;9680;52.520;13.332;2023-02-01T04:42:29;100693.19;;;5.00;78.16
19096;BME280;9680;52.520;13.332;2023-02-01T04:44:57;100700.88;;;5.03;78.22
19096;BME280;9680;52.520;13.332;2023-02-01T04:47:24;100699.97;;;5.07;78.19
19096;BME280;9680;52.520;13.332;2023-02-01T04:49:51;100688.69;;;5.11;78.29
19096;BME280;9680;52.520;13.332;2023-02-01T04:52:18;100684.31;;;5.15;78.32
19096;BME280;9680;52.520;13.332;2023-02-01T04:54:45;100688.56;;;5.19;78.35
19096;BME280;9680;52.520;13.332;2023-02-01T04:57:12;100684.28;;;5.18;77.61
19096;BME280;9680;52.520;13.332;2023-02-01T04:59:40;100686.03;;;5.16;77.51
19096;BME280;9680;52.520;13.332;2023-02-01T05:02:08;100673.94;;;5.18;77.81
19096;BME280;9680;52.520;13.332;2023-02-01T05:04:35;100667.84;;;5.22;77.75
19096;BME280;9680;52.520;13.332;2023-02-01T05:07:02;100666.94;;;5.24;77.75
19096;BME280;9680;52.520;13.332;2023-02-01T05:09:28;100668.59;;;5.29;77.77
19096;BME280;9680;52.520;13.332;2023-02-01T05:11:55;100672.00;;;5.31;77.72
19096;BME280;9680;52.520;13.332;2023-02-01T05:14:39;100658.28;;;5.27;77.58
19096;BME280;9680;52.520;13.332;2023-02-01T05:17:09;100653.13;;;5.27;77.56
19096;BME280;9680;52.520;13.332;2023-02-01T05:19:35;100657.41;;;5.30;77.55
19096;BME280;9680;52.520;13.332;2023-02-01T05:22:02;100654.78;;;5.31;77.34
19096;BME280;9680;52.520;13.332;2023-02-01T05:24:29;100659.91;;;5.33;77.30
19096;BME280;9680;52.520;13.332;2023-02-01T05:26:56;100649.59;;;5.33;77.37
19096;BME280;9680;52.520;13.332;2023-02-01T05:29:22;100643.59;;;5.31;77.10
19096;BME280;9680;52.520;13.332;2023-02-01T05:31:49;100650.47;;;5.32;77.04
19096;BME280;9680;52.520;13.332;2023-02-01T05:34:17;100647.88;;;5.32;76.77
19096;BME280;9680;52.520;13.332;2023-02-01T05:36:44;100640.19;;;5.29;76.42
19096;BME280;9680;52.520;13.332;2023-02-01T05:39:11;100647.94;;;5.29;76.48
19096;BME280;9680;52.520;13.332;2023-02-01T05:41:38;100644.47;;;5.31;76.83
19096;BME280;9680;52.520;13.332;2023-02-01T05:44:05;100644.41;;;5.34;76.00
19096;BME280;9680;52.520;13.332;2023-02-01T05:46:33;100646.13;;;5.35;76.63
19096;BME280;9680;52.520;13.332;2023-02-01T05:49:00;100640.03;;;5.38;76.06
19096;BME280;9680;52.520;13.332;2023-02-01T05:51:28;100632.34;;;5.35;76.48
19096;BME280;9680;52.520;13.332;2023-02-01T05:53:54;100628.91;;;5.34;76.59
19096;BME280;9680;52.520;13.332;2023-02-01T05:56:21;100634.91;;;5.35;76.33
19096;BME280;9680;52.520;13.332;2023-02-01T05:58:48;100628.84;;;5.37;76.46
19096;BME280;9680;52.520;13.332;2023-02-01T06:01:15;100627.16;;;5.36;75.92
19096;BME280;9680;52.520;13.332;2023-02-01T06:03:41;100623.69;;;5.37;75.54
19096;BME280;9680;52.520;13.332;2023-02-01T06:06:08;100630.63;;;5.34;75.89
19096;BME280;9680;52.520;13.332;2023-02-01T06:08:36;100625.44;;;5.35;76.17
19096;BME280;9680;52.520;13.332;2023-02-01T06:11:05;100630.56;;;5.38;76.39
19096;BME280;9680;52.520;13.332;2023-02-01T06:13:33;100628.78;;;5.41;76.53
19096;BME280;9680;52.520;13.332;2023-02-01T06:16:00;100632.25;;;5.39;76.49
19096;BME280;9680;52.520;13.332;2023-02-01T06:18:27;100629.69;;;5.38;76.75
19096;BME280;9680;52.520;13.332;2023-02-01T06:20:56;100622.00;;;5.35;77.08
19096;BME280;9680;52.520;13.332;2023-02-01T06:23:23;100627.22;;;5.33;77.34
19096;BME280;9680;52.520;13.332;2023-02-01T06:25:52;100630.75;;;5.28;77.87
19096;BME280;9680;52.520;13.332;2023-02-01T06:28:19;100616.94;;;5.27;77.68
19096;BME280;9680;52.520;13.332;2023-02-01T06:30:46;100621.34;;;5.22;78.16
19096;BME280;9680;52.520;13.332;2023-02-01T06:33:14;100619.75;;;5.16;78.03
19096;BME280;9680;52.520;13.332;2023-02-01T06:35:41;100612.88;;;5.15;78.60
19096;BME280;9680;52.520;13.332;2023-02-01T06:38:09;100610.28;;;5.15;78.91
19096;BME280;9680;52.520;13.332;2023-02-01T06:40:36;100607.78;;;5.12;78.73
19096;BME280;9680;52.520;13.332;2023-02-01T06:43:04;100612.94;;;5.10;79.25
19096;BME280;9680;52.520;13.332;2023-02-01T06:45:31;100608.59;;;5.13;79.26
19096;BME280;9680;52.520;13.332;2023-02-01T06:47:58;100600.84;;;5.14;79.20
19096;BME280;9680;52.520;13.332;2023-02-01T06:50:25;100605.25;;;5.09;78.72
19096;BME280;9680;52.520;13.332;2023-02-01T06:52:52;100587.13;;;5.10;78.94
19096;BME280;9680;52.520;13.332;2023-02-01T06:55:19;100593.09;;;5.14;78.99
19096;BME280;9680;52.520;13.332;2023-02-01T06:57:45;100590.41;;;5.19;78.89
19096;BME280;9680;52.520;13.332;2023-02-01T07:00:15;100583.53;;;5.19;78.73
19096;BME280;9680;52.520;13.332;2023-02-01T07:02:42;100580.03;;;5.22;78.28
19096;BME280;9680;52.520;13.332;2023-02-01T07:05:09;100579.19;;;5.21;78.13
19096;BME280;9680;52.520;13.332;2023-02-01T07:07:36;100582.56;;;5.25;78.21
19096;BME280;9680;52.520;13.332;2023-02-01T07:10:03;100573.88;;;5.29;77.88
19096;BME280;9680;52.520;13.332;2023-02-01T07:12:30;100582.47;;;5.31;78.06
19096;BME280;9680;52.520;13.332;2023-02-01T07:14:57;100578.13;;;5.33;77.69
19096;BME280;9680;52.520;13.332;2023-02-01T07:17:25;100563.50;;;5.32;77.35
19096;BME280;9680;52.520;13.332;2023-02-01T07:19:52;100569.50;;;5.33;77.35
19096;BME280;9680;52.520;13.332;2023-02-01T07:22:19;100576.38;;;5.34;77.27
19096;BME280;9680;52.520;13.332;2023-02-01T07:24:45;100567.84;;;5.30;77.35
19096;BME280;9680;52.520;13.332;2023-02-01T07:27:12;100570.38;;;5.32;77.75
19096;BME280;9680;52.520;13.332;2023-02-01T07:29:39;100553.06;;;5.38;78.05
19096;BME280;9680;52.520;13.332;2023-02-01T07:32:05;100557.34;;;5.38;77.87
19096;BME280;9680;52.520;13.332;2023-02-01T07:34:33;100554.53;;;5.50;78.05
19096;BME280;9680;52.520;13.332;2023-02-01T07:37:00;100552.63;;;5.59;77.79
19096;BME280;9680;52.520;13.332;2023-02-01T07:39:28;100550.84;;;5.62;77.65
19096;BME280;9680;52.520;13.332;2023-02-01T07:41:57;100545.75;;;5.59;77.99
19096;BME280;9680;52.520;13.332;2023-02-01T07:44:24;100551.88;;;5.55;77.69
19096;BME280;9680;52.520;13.332;2023-02-01T07:46:51;100549.47;;;5.46;78.27
19096;BME280;9680;52.520;13.332;2023-02-01T07:49:17;100548.72;;;5.41;78.70
19096;BME280;9680;52.520;13.332;2023-02-01T07:51:45;100560.00;;;5.35;79.01
19096;BME280;9680;52.520;13.332;2023-02-01T07:54:12;100554.19;;;5.23;79.45
19096;BME280;9680;52.520;13.332;2023-02-01T07:56:39;100551.72;;;5.17;80.22
19096;BME280;9680;52.520;13.332;2023-02-01T07:59:05;100547.56;;;5.10;80.68
19096;BME280;9680;52.520;13.332;2023-02-01T08:01:33;100551.13;;;5.03;81.19
19096;BME280;9680;52.520;13.332;2023-02-01T08:04:01;100563.34;;;4.93;82.08
19096;BME280;9680;52.520;13.332;2023-02-01T08:06:30;100554.88;;;4.85;82.47
19096;BME280;9680;52.520;13.332;2023-02-01T08:08:59;100547.19;;;4.80;83.01
19096;BME280;9680;52.520;13.332;2023-02-01T08:11:26;100548.19;;;4.73;83.61
19096;BME280;9680;52.520;13.332;2023-02-01T08:13:53;100549.09;;;4.70;83.89
19096;BME280;9680;52.520;13.332;2023-02-01T08:16:22;100560.31;;;4.68;84.27
19096;BME280;9680;52.520;13.332;2023-02-01T08:18:49;100549.22;;;4.62;84.92
19096;BME280;9680;52.520;13.332;2023-02-01T08:21:18;100550.31;;;4.47;85.15
19096;BME280;9680;52.520;13.332;2023-02-01T08:23:45;100560.63;;;4.47;85.76
19096;BME280;9680;52.520;13.332;2023-02-01T08:26:18;100552.00;;;4.48;86.38
19096;BME280;9680;52.520;13.332;2023-02-01T08:28:47;100555.56;;;4.43;86.69
19096;BME280;9680;52.520;13.332;2023-02-01T08:31:17;100548.78;;;4.35;86.77
19096;BME280;9680;52.520;13.332;2023-02-01T08:33:49;100554.00;;;4.32;87.40
19096;BME280;9680;52.520;13.332;2023-02-01T08:36:20;100566.84;;;4.34;87.86
19096;BME280;9680;52.520;13.332;2023-02-01T08:38:47;100564.31;;;4.32;88.08
19096;BME280;9680;52.520;13.332;2023-02-01T08:41:17;100569.56;;;4.23;88.59
19096;BME280;9680;52.520;13.332;2023-02-01T08:43:44;100571.34;;;4.19;89.27
19096;BME280;9680;52.520;13.332;2023-02-01T08:46:11;100573.09;;;4.17;89.95
19096;BME280;9680;52.520;13.332;2023-02-01T08:48:38;100564.59;;;4.12;89.87
19096;BME280;9680;52.520;13.332;2023-02-01T08:51:07;100580.22;;;3.98;91.44
19096;BME280;9680;52.520;13.332;2023-02-01T08:53:34;100582.88;;;3.92;92.16
19096;BME280;9680;52.520;13.332;2023-02-01T08:56:01;100576.91;;;3.88;93.08
19096;BME280;9680;52.520;13.332;2023-02-01T08:58:29;100584.72;;;3.84;93.94
19096;BME280;9680;52.520;13.332;2023-02-01T09:00:56;100587.28;;;3.82;93.89
19096;BME280;9680;52.520;13.332;2023-02-01T09:03:23;100566.72;;;3.79;94.60
19096;BME280;9680;52.520;13.332;2023-02-01T09:05:50;100587.28;;;3.82;94.69
19096;BME280;9680;52.520;13.332;2023-02-01T09:08:17;100590.66;;;3.89;94.83
19096;BME280;9680;52.520;13.332;2023-02-01T09:10:45;100584.59;;;3.93;94.59
19096;BME280;9680;52.520;13.332;2023-02-01T09:13:12;100595.69;;;4.00;94.13
19096;BME280;9680;52.520;13.332;2023-02-01T09:15:40;100599.03;;;4.08;94.03
19096;BME280;9680;52.520;13.332;2023-02-01T09:18:07;100598.81;;;4.22;93.86
19096;BME280;9680;52.520;13.332;2023-02-01T09:20:33;100601.28;;;4.30;92.78
19096;BME280;9680;52.520;13.332;2023-02-01T09:23:00;100608.22;;;4.26;92.51
19096;BME280;9680;52.520;13.332;2023-02-01T09:25:27;100617.59;;;4.32;92.12
19096;BME280;9680;52.520;13.332;2023-02-01T09:27:54;100615.00;;;4.33;92.01
19096;BME280;9680;52.520;13.332;2023-02-01T09:30:21;100623.53;;;4.37;92.16
19096;BME280;9680;52.520;13.332;2023-02-01T09:32:49;100614.97;;;4.36;91.06
19096;BME280;9680;52.520;13.332;2023-02-01T09:35:16;100618.38;;;4.39;91.41
19096;BME280;9680;52.520;13.332;2023-02-01T09:37:43;100611.47;;;4.39;90.72
19096;BME280;9680;52.520;13.332;2023-02-01T09:40:12;100621.03;;;4.32;90.53
19096;BME280;9680;52.520;13.332;2023-02-01T09:42:51;100627.09;;;4.28;90.77
19096;BME280;9680;52.520;13.332;2023-02-01T09:45:24;100642.56;;;4.31;90.98
19096;BME280;9680;52.520;13.332;2023-02-01T09:48:00;100638.88;;;4.46;91.62
19096;BME280;9680;52.520;13.332;2023-02-01T09:50:33;100641.41;;;4.51;90.62
19096;BME280;9680;52.520;13.332;2023-02-01T09:53:04;100641.41;;;4.49;89.57
19096;BME280;9680;52.520;13.332;2023-02-01T09:55:36;100641.47;;;4.46;89.49
19096;BME280;9680;52.520;13.332;2023-02-01T09:58:07;100639.75;;;4.47;89.22
19096;BME280;9680;52.520;13.332;2023-02-01T10:00:36;100645.66;;;4.54;89.29
19096;BME280;9680;52.520;13.332;2023-02-01T10:03:11;100643.91;;;4.57;89.39
19096;BME280;9680;52.520;13.332;2023-02-01T10:08:39;100652.72;;;4.42;88.33
19096;BME280;9680;52.520;13.332;2023-02-01T10:11:27;100644.22;;;4.34;89.41
19096;BME280;9680;52.520;13.332;2023-02-01T10:14:21;100652.69;;;4.44;89.70
19096;BME280;9680;52.520;13.332;2023-02-01T10:17:02;100645.88;;;4.40;89.40
19096;BME280;9680;52.520;13.332;2023-02-01T10:19:40;100648.41;;;4.43;89.65
19096;BME280;9680;52.520;13.332;2023-02-01T10:22:18;100645.84;;;4.43;89.65
19096;BME280;9680;52.520;13.332;2023-02-01T10:24:52;100652.69;;;4.44;89.68
19096;BME280;9680;52.520;13.332;2023-02-01T10:27:28;100653.44;;;4.50;89.36
19096;BME280;9680;52.520;13.332;2023-02-01T10:29:59;100647.38;;;4.55;89.09
19096;BME280;9680;52.520;13.332;2023-02-01T10:32:31;100657.50;;;4.69;89.46
19096;BME280;9680;52.520;13.332;2023-02-01T10:35:04;100655.50;;;4.86;89.22
19096;BME280;9680;52.520;13.332;2023-02-01T10:37:35;100647.59;;;4.97;87.41
19096;BME280;9680;52.520;13.332;2023-02-01T10:40:14;100654.41;;;5.01;87.31
19096;BME280;9680;52.520;13.332;2023-02-01T10:42:42;100660.50;;;4.97;86.94
19096;BME280;9680;52.520;13.332;2023-02-01T10:45:13;100679.47;;;4.96;86.80
19096;BME280;9680;52.520;13.332;2023-02-01T10:47:41;100655.63;;;4.78;86.58
19096;BME280;9680;52.520;13.332;2023-02-01T10:50:16;100649.84;;;4.62;87.42
19096;BME280;9680;52.520;13.332;2023-02-01T10:52:49;100659.44;;;4.54;87.48
19096;BME280;9680;52.520;13.332;2023-02-01T10:55:35;100665.63;;;4.41;88.45
19096;BME280;9680;52.520;13.332;2023-02-01T10:58:05;100658.75;;;4.41;88.86
19096;BME280;9680;52.520;13.332;2023-02-01T11:00:38;100658.72;;;4.43;89.45
19096;BME280;9680;52.520;13.332;2023-02-01T11:03:39;100654.19;;;4.59;89.78
19096;BME280;9680;52.520;13.332;2023-02-01T11:06:18;100640.63;;;5.02;91.28
19096;BME280;9680;52.520;13.332;2023-02-01T11:08:48;100646.22;;;5.28;90.04
19096;BME280;9680;52.520;13.332;2023-02-01T11:11:15;100641.00;;;5.32;88.65
19096;BME280;9680;52.520;13.332;2023-02-01T11:13:43;100636.72;;;5.31;87.99
19096;BME280;9680;52.520;13.332;2023-02-01T11:16:12;100639.16;;;5.39;87.96
19096;BME280;9680;52.520;13.332;2023-02-01T11:18:41;100634.56;;;5.55;87.88
19096;BME280;9680;52.520;13.332;2023-02-01T11:21:09;100640.44;;;5.63;87.62
19096;BME280;9680;52.520;13.332;2023-02-01T11:23:43;100635.25;;;5.63;86.86
19096;BME280;9680;52.520;13.332;2023-02-01T11:26:13;100624.03;;;5.64;85.49
19096;BME280;9680;52.520;13.332;2023-02-01T11:28:50;100633.38;;;5.72;85.64
19096;BME280;9680;52.520;13.332;2023-02-01T11:31:18;100621.44;;;6.10;86.86
19096;BME280;9680;52.520;13.332;2023-02-01T11:33:50;100615.78;;;6.33;84.65
19096;BME280;9680;52.520;13.332;2023-02-01T11:36:22;100602.50;;;6.49;84.59
19096;BME280;9680;52.520;13.332;2023-02-01T11:39:08;100600.59;;;6.55;83.88
19096;BME280;9680;52.520;13.332;2023-02-01T11:41:41;100599.69;;;6.58;82.87
19096;BME280;9680;52.520;13.332;2023-02-01T11:44:19;100593.63;;;6.58;82.45
19096;BME280;9680;52.520;13.332;2023-02-01T11:46:46;100584.78;;;6.68;82.83
19096;BME280;9680;52.520;13.332;2023-02-01T11:49:20;100582.97;;;6.72;81.20
19096;BME280;9680;52.520;13.332;2023-02-01T11:51:54;100577.41;;;6.87;79.88
19096;BME280;9680;52.520;13.332;2023-02-01T11:54:42;100575.34;;;7.02;80.13
19096;BME280;9680;52.520;13.332;2023-02-01T11:57:24;100568.53;;;7.31;79.23
19096;BME280;9680;52.520;13.332;2023-02-01T12:00:06;100575.94;;;7.45;78.70
19096;BME280;9680;52.520;13.332;2023-02-01T12:02:56;100566.28;;;7.50;76.85
19096;BME280;9680;52.520;13.332;2023-02-01T12:05:36;100562.91;;;7.46;75.65
19096;BME280;9680;52.520;13.332;2023-02-01T12:08:18;100547.69;;;7.35;75.12
19096;BME280;9680;52.520;13.332;2023-02-01T12:10:58;100558.88;;;7.36;75.44
19096;BME280;9680;52.520;13.332;2023-02-01T12:13:39;100561.56;;;7.33;75.06
19096;BME280;9680;52.520;13.332;2023-02-01T12:16:18;100555.47;;;7.34;75.17
19096;BME280;9680;52.520;13.332;2023-02-01T12:22:14;100548.72;;;6.95;74.22
19096;BME280;9680;52.520;13.332;2023-02-01T12:25:03;100533.28;;;6.90;75.61
19096;BME280;9680;52.520;13.332;2023-02-01T12:27:46;100529.00;;;6.89;75.73
19096;BME280;9680;52.520;13.332;2023-02-01T12:30:34;100543.97;;;6.78;76.11
19096;BME280;9680;52.520;13.332;2023-02-01T12:33:11;100533.78;;;6.72;76.12
19096;BME280;9680;52.520;13.332;2023-02-01T12:35:49;100516.03;;;6.56;76.96
19096;BME280;9680;52.520;13.332;2023-02-01T12:38:32;100524.78;;;6.52;77.09
19096;BME280;9680;52.520;13.332;2023-02-01T12:41:15;100503.25;;;6.50;76.36
19096;BME280;9680;52.520;13.332;2023-02-01T12:43:49;100509.28;;;6.50;76.64
19096;BME280;9680;52.520;13.332;2023-02-01T12:46:23;100505.56;;;6.61;76.05
19096;BME280;9680;52.520;13.332;2023-02-01T12:48:57;100505.91;;;6.81;76.01
19096;BME280;9680;52.520;13.332;2023-02-01T12:51:28;100485.88;;;6.88;75.45
19096;BME280;9680;52.520;13.332;2023-02-01T12:54:00;100493.19;;;7.05;75.12
19096;BME280;9680;52.520;13.332;2023-02-01T12:56:32;100489.78;;;7.05;74.66
19096;BME280;9680;52.520;13.332;2023-02-01T12:59:05;100484.19;;;7.19;74.75
19096;BME280;9680;52.520;13.332;2023-02-01T13:01:35;100478.00;;;7.24;73.31
19096;BME280;9680;52.520;13.332;2023-02-01T13:04:06;100476.03;;;7.33;73.69
19096;BME280;9680;52.520;13.332;2023-02-01T13:06:39;100487.75;;;7.46;73.23
19096;BME280;9680;52.520;13.332;2023-02-01T13:09:17;100489.69;;;7.39;71.77
19096;BME280;9680;52.520;13.332;2023-02-01T13:11:45;100489.63;;;7.41;71.77
19096;BME280;9680;52.520;13.332;2023-02-01T13:14:24;100496.84;;;7.29;70.96
19096;BME280;9680;52.520;13.332;2023-02-01T13:16:57;100507.56;;;7.17;71.76
19096;BME280;9680;52.520;13.332;2023-02-01T13:19:28;100508.63;;;7.10;72.08
19096;BME280;9680;52.520;13.332;2023-02-01T13:21:58;100515.78;;;7.00;71.52
19096;BME280;9680;52.520;13.332;2023-02-01T13:24:33;100510.94;;;6.88;72.31
19096;BME280;9680;52.520;13.332;2023-02-01T13:27:00;100505.84;;;6.84;72.08
19096;BME280;9680;52.520;13.332;2023-02-01T13:29:30;100509.97;;;6.92;72.73
19096;BME280;9680;52.520;13.332;2023-02-01T13:32:10;100508.28;;;6.89;72.05
19096;BME280;9680;52.520;13.332;2023-02-01T13:35:08;100496.56;;;6.76;71.59